Airfield :
LOGIN :

Register | Disclaimer

   EN    FR    IT 

 










Legend :    VFR   Marginal VFR   IFR   Intensive IFR   Very Intensive IFR
Visi :
Ceiling :
>= 8 km
>= 3000ft
5 to 8 km
1000 to 3000 ft
1500m to 5 km
500 to 1000 ft
800 to 1500m
200 to 500 ft
< 800m
< 200 ft
Symbols :   Thunderstorms  Fog  Heavy snow  Heavy precipitations  Wind > 20 kt
SIGMETs :     Misc.  Thunderstorms  Icing  Turbulence  Mountain Waves  Volcanic Ashes







- Airport Elevation : -11 ft
- IATA code : AMS


EHAM - Amsterdam Schiphol

CURRENT METAR :
  • 200525Z 20012KT 9999 FEW017 17/15 Q1014 NOSIG

EXPIRED METARs :
  • 200455Z 19009KT 9999 FEW017 17/15 Q1015 NOSIG
  • 200425Z 20010KT 9999 FEW046 17/15 Q1015 NOSIG
  • 200355Z 20010KT 9999 FEW046 17/15 Q1015 NOSIG
  • 200325Z 20010KT CAVOK 17/15 Q1015 NOSIG
  • 200255Z 20009KT CAVOK 16/14 Q1015 NOSIG

TAF TAF EHAM
Valid from the 20 at 06:00 until the 21 at 12:00 UTC


200433Z 2006/2112 20009KT CAVOK
PROB30
TEMPO 2006/2010 BKN014
BECMG 2007/2010 22016KT SCT025
BECMG 2015/2018 18006KT CAVOK
BECMG 2021/2024 19013KT
BECMG 2100/2103 20018G28KT
BECMG 2103/2105 21023G35KT
TEMPO 2105/2107 23030G45KT 6000 RA -SHRA SCT018TCU BKN030
BECMG 2106/2108 26025G38KT SCT025
No reported NOTAMs for that airfield.



MET'MAP, your aeronautical weather chart ! - Copyright ORBIFLY December 2007 - Disclaimer

ORBIFLY MET'MAP TEAM :

Programming & Development : Alexandra Zaïnal
Concept & Development : Baudouin d'Aumeries
Co-Development & Prog : Marc-Olivier Méhu
Technical & hardware support : Manuel Goepfert

Contact : metmap@orbifly.com




SOURCES & CREDITS :

   NOAA